createdAt,value
2022-08-25T00:01:55.119Z,57.12
2022-08-25T00:04:24.502Z,56.99
2022-08-25T00:06:53.626Z,57.58
2022-08-25T00:09:25.455Z,57.31
2022-08-25T00:11:54.927Z,58.27
2022-08-25T00:14:27.756Z,57.87
2022-08-25T00:16:56.165Z,58.77
2022-08-25T00:19:28.393Z,59.05
2022-08-25T00:21:56.361Z,59.28
2022-08-25T00:24:25.044Z,58.92
2022-08-25T00:26:56.495Z,58.97
2022-08-25T00:29:26.322Z,59.91
2022-08-25T00:31:55.216Z,60.77
2022-08-25T00:34:31.589Z,60.57
2022-08-25T00:36:59.428Z,62.12
2022-08-25T00:39:27.753Z,62.75
2022-08-25T00:41:57.723Z,63.56
2022-08-25T00:44:27.546Z,62.75
2022-08-25T00:46:58.158Z,62.96
2022-08-25T00:49:49.815Z,63.01
2022-08-25T00:52:23.372Z,63.45
2022-08-25T00:55:07.693Z,64.09
2022-08-25T00:57:44.129Z,65.23
2022-08-25T01:00:20.885Z,65.87
2022-08-25T01:02:48.755Z,65.36
2022-08-25T01:05:19.391Z,65.91
2022-08-25T01:07:47.413Z,65.72
2022-08-25T01:10:19.164Z,66.42
2022-08-25T01:12:49.181Z,65.65
2022-08-25T01:15:17.764Z,65.97
2022-08-25T01:17:52.249Z,66.54
2022-08-25T01:20:22.982Z,66.81
2022-08-25T01:22:57.568Z,67.19
2022-08-25T01:25:35.057Z,67.51
2022-08-25T01:28:03.200Z,68.40
2022-08-25T01:30:31.648Z,68.03
2022-08-25T01:33:02.648Z,68.94
2022-08-25T01:35:30.861Z,69.24
2022-08-25T01:37:59.453Z,67.24
2022-08-25T01:40:28.015Z,67.93
2022-08-25T01:43:37.460Z,68.33
2022-08-25T01:46:05.622Z,68.47
2022-08-25T01:48:33.590Z,68.15
2022-08-25T01:51:01.352Z,68.48
2022-08-25T01:53:33.279Z,69.04
2022-08-25T01:56:13.945Z,68.68
2022-08-25T01:58:45.943Z,69.06
2022-08-25T02:01:20.308Z,69.78
2022-08-25T02:03:55.402Z,69.40
2022-08-25T02:06:32.072Z,68.79
2022-08-25T02:09:07.945Z,68.83
2022-08-25T02:11:39.176Z,68.14
2022-08-25T02:14:07.236Z,67.05
2022-08-25T02:16:37.267Z,67.36
2022-08-25T02:19:07.605Z,66.50
2022-08-25T02:21:36.044Z,66.35
2022-08-25T02:24:04.644Z,67.59
2022-08-25T02:26:32.556Z,66.55
2022-08-25T02:29:05.635Z,66.94
2022-08-25T02:31:34.501Z,67.61
2022-08-25T02:34:02.478Z,66.52
2022-08-25T02:36:32.298Z,67.58
2022-08-25T02:39:00.408Z,67.02
2022-08-25T02:41:31.313Z,66.71
2022-08-25T02:44:01.645Z,66.92
2022-08-25T02:46:29.877Z,67.93
2022-08-25T02:48:58.115Z,67.43
2022-08-25T02:51:26.616Z,68.17
2022-08-25T02:53:54.165Z,68.21
2022-08-25T02:56:21.920Z,68.88
2022-08-25T02:58:49.789Z,68.58
2022-08-25T03:01:17.473Z,69.16
2022-08-25T03:03:46.639Z,69.88
2022-08-25T03:06:20.654Z,69.99
2022-08-25T03:08:48.461Z,70.02
2022-08-25T03:11:17.749Z,68.90
2022-08-25T03:13:45.404Z,69.26
2022-08-25T03:16:13.148Z,69.28
2022-08-25T03:18:42.758Z,69.44
2022-08-25T03:21:11.940Z,69.57
2022-08-25T03:23:41.375Z,69.66
2022-08-25T03:26:28.134Z,70.61
2022-08-25T03:28:55.832Z,71.42
2022-08-25T03:31:25.230Z,71.72
2022-08-25T03:33:53.997Z,72.68
2022-08-25T03:36:21.876Z,73.34
2022-08-25T03:38:49.573Z,74.27
2022-08-25T03:41:29.457Z,74.00
2022-08-25T03:43:57.552Z,74.87
2022-08-25T03:46:27.889Z,75.19
2022-08-25T03:48:55.711Z,73.68
2022-08-25T03:51:26.677Z,73.83
2022-08-25T03:53:54.710Z,74.02
2022-08-25T03:56:22.356Z,75.34
2022-08-25T03:58:50.041Z,73.86
2022-08-25T04:01:18.306Z,74.39
2022-08-25T04:03:46.923Z,74.89
2022-08-25T04:06:16.773Z,74.43
2022-08-25T04:08:44.745Z,74.89
2022-08-25T04:11:18.225Z,75.09
2022-08-25T04:13:47.074Z,74.97
2022-08-25T04:16:18.750Z,75.97
2022-08-25T04:18:47.879Z,75.93
2022-08-25T04:21:16.764Z,75.85
2022-08-25T04:23:46.109Z,75.33
2022-08-25T04:26:20.968Z,75.59
2022-08-25T04:28:49.638Z,76.27
2022-08-25T04:31:19.705Z,75.26
2022-08-25T04:33:48.457Z,74.59
2022-08-25T04:36:19.704Z,73.23
2022-08-25T04:38:49.718Z,73.94
2022-08-25T04:41:20.763Z,73.87
2022-08-25T04:43:48.538Z,73.35
2022-08-25T04:46:22.100Z,72.79
2022-08-25T04:48:52.190Z,72.39
2022-08-25T04:51:24.275Z,72.83
2022-08-25T04:53:52.647Z,72.26
2022-08-25T04:56:25.266Z,72.54
2022-08-25T05:01:24.254Z,73.07
2022-08-25T05:04:00.054Z,72.56
2022-08-25T05:06:29.029Z,72.77
2022-08-25T05:08:57.936Z,73.29
2022-08-25T05:11:26.380Z,72.64
2022-08-25T05:13:57.701Z,71.68
2022-08-25T05:16:26.442Z,71.60
2022-08-25T05:18:55.656Z,71.51
2022-08-25T05:21:27.407Z,71.13
2022-08-25T05:24:00.137Z,70.58
2022-08-25T05:26:30.866Z,69.26
2022-08-25T05:29:00.298Z,68.68
2022-08-25T05:31:28.934Z,68.78
2022-08-25T05:33:57.736Z,66.16
2022-08-25T05:36:27.396Z,67.01
2022-08-25T05:38:54.939Z,67.27
2022-08-25T05:41:28.401Z,67.66
2022-08-25T05:43:56.945Z,66.74
2022-08-25T05:46:24.751Z,66.08
2022-08-25T05:48:53.752Z,64.58
2022-08-25T05:51:21.700Z,61.91
2022-08-25T05:53:51.185Z,62.18
2022-08-25T05:56:19.601Z,62.53
2022-08-25T05:58:47.592Z,63.16
2022-08-25T06:01:46.559Z,62.18
2022-08-25T06:04:18.026Z,62.21
2022-08-25T06:06:45.799Z,60.51
2022-08-25T06:09:14.320Z,61.35
2022-08-25T06:11:43.060Z,59.52
2022-08-25T06:14:11.409Z,59.06
2022-08-25T06:16:39.794Z,58.09
2022-08-25T06:19:09.823Z,57.36
2022-08-25T06:21:40.750Z,55.47
2022-08-25T06:24:15.274Z,57.25
2022-08-25T06:26:44.359Z,55.40
2022-08-25T06:29:14.296Z,56.24
2022-08-25T06:31:42.915Z,57.24
2022-08-25T06:34:11.799Z,53.60
2022-08-25T06:36:40.413Z,54.34
2022-08-25T06:39:10.520Z,56.89
2022-08-25T06:41:38.969Z,56.20
2022-08-25T06:44:06.640Z,57.64
2022-08-25T06:46:35.917Z,52.81
2022-08-25T06:49:06.968Z,51.75
2022-08-25T06:51:38.442Z,51.40
2022-08-25T06:54:07.035Z,51.50
2022-08-25T06:56:36.905Z,51.21
2022-08-25T06:59:05.983Z,50.67
2022-08-25T07:01:34.408Z,48.88
2022-08-25T07:04:07.588Z,49.66
2022-08-25T07:06:38.001Z,51.13
2022-08-25T07:09:08.255Z,49.96
2022-08-25T07:11:37.036Z,52.80
2022-08-25T07:14:06.900Z,53.47
2022-08-25T07:16:36.227Z,48.64
2022-08-25T07:19:06.263Z,46.13
2022-08-25T07:21:38.801Z,42.59
2022-08-25T07:24:12.183Z,42.94
2022-08-25T07:26:42.399Z,45.05
2022-08-25T07:29:18.253Z,45.72
2022-08-25T07:31:48.254Z,43.78
2022-08-25T07:34:35.401Z,43.07
2022-08-25T07:37:06.630Z,43.51
2022-08-25T07:39:35.925Z,42.81
2022-08-25T07:42:04.996Z,41.48
2022-08-25T07:44:40.083Z,42.06
2022-08-25T07:47:11.197Z,39.82
2022-08-25T07:49:40.016Z,38.00
2022-08-25T07:52:07.831Z,37.60
2022-08-25T07:54:38.025Z,38.19
2022-08-25T07:57:08.307Z,37.76
2022-08-25T07:59:42.685Z,37.25
2022-08-25T08:02:18.705Z,36.90
2022-08-25T08:04:51.459Z,35.90
2022-08-25T08:07:22.943Z,35.92
2022-08-25T08:10:00.399Z,36.60
2022-08-25T08:12:42.823Z,35.04
2022-08-25T08:15:10.784Z,35.01
2022-08-25T08:17:39.753Z,35.44
2022-08-25T08:20:10.512Z,36.23
2022-08-25T08:22:41.573Z,35.38
2022-08-25T08:25:11.165Z,35.64
2022-08-25T08:27:47.241Z,34.82
2022-08-25T08:30:15.161Z,35.63
2022-08-25T08:33:06.413Z,35.25
2022-08-25T08:35:32.200Z,34.00
2022-08-25T08:38:00.352Z,34.06
2022-08-25T08:40:29.346Z,34.59
2022-08-25T08:43:07.308Z,35.01
2022-08-25T08:45:53.729Z,35.32
2022-08-25T08:48:50.673Z,34.26
2022-08-25T08:51:25.313Z,34.50
2022-08-25T08:54:15.424Z,35.44
2022-08-25T08:56:49.001Z,35.12
2022-08-25T08:59:29.784Z,36.00
2022-08-25T09:02:01.978Z,34.88
2022-08-25T09:04:40.118Z,34.85
2022-08-25T09:07:14.761Z,35.04
2022-08-25T09:09:44.488Z,33.40
2022-08-25T09:12:47.954Z,32.37
2022-08-25T09:15:53.101Z,32.56
2022-08-25T09:18:50.911Z,31.77
2022-08-25T09:21:42.057Z,31.48
2022-08-25T09:24:15.920Z,31.71
2022-08-25T09:27:06.839Z,31.38
2022-08-25T09:29:50.859Z,32.67
2022-08-25T09:32:24.244Z,32.30
2022-08-25T09:35:02.180Z,32.13
2022-08-25T09:37:30.551Z,32.46
2022-08-25T09:40:00.017Z,31.83
2022-08-25T09:42:51.373Z,32.46
2022-08-25T09:45:44.560Z,31.81
2022-08-25T09:48:40.721Z,33.00
2022-08-25T09:51:24.218Z,33.55
2022-08-25T09:53:55.109Z,34.13
2022-08-25T09:56:26.708Z,33.31
2022-08-25T09:58:59.060Z,34.54
2022-08-25T10:01:32.076Z,34.13
2022-08-25T10:04:06.052Z,33.90
2022-08-25T10:06:43.003Z,34.06
2022-08-25T10:09:27.212Z,33.96
2022-08-25T10:11:57.661Z,33.35
2022-08-25T10:14:36.524Z,33.01
2022-08-25T10:17:27.855Z,33.33
2022-08-25T10:20:30.905Z,34.45
2022-08-25T10:23:14.157Z,33.81
2022-08-25T10:25:58.001Z,34.23
2022-08-25T10:29:04.968Z,33.75
2022-08-25T10:31:47.300Z,31.79
2022-08-25T10:34:51.368Z,31.87
2022-08-25T10:37:35.099Z,31.16
2022-08-25T10:40:16.743Z,30.01
2022-08-25T10:43:08.013Z,29.96
2022-08-25T10:45:49.100Z,29.37
2022-08-25T10:48:22.223Z,29.43
2022-08-25T10:51:01.252Z,29.84
2022-08-25T10:53:41.106Z,29.80
2022-08-25T10:56:14.613Z,29.68
2022-08-25T10:59:06.396Z,30.31
2022-08-25T11:02:03.397Z,29.72
2022-08-25T11:04:40.225Z,29.30
2022-08-25T11:07:13.353Z,30.23
2022-08-25T11:09:45.623Z,30.54
2022-08-25T11:12:33.048Z,30.38
2022-08-25T11:15:12.129Z,31.39
2022-08-25T11:17:46.128Z,30.75
2022-08-25T11:20:27.093Z,30.25
2022-08-25T11:23:11.953Z,30.91
2022-08-25T11:25:46.289Z,31.74
2022-08-25T11:28:22.318Z,31.64
2022-08-25T11:30:52.672Z,32.31
2022-08-25T11:33:20.797Z,31.72
2022-08-25T11:35:57.133Z,31.12
2022-08-25T11:38:25.061Z,31.46
2022-08-25T11:41:21.522Z,31.63
2022-08-25T11:43:54.937Z,32.36
2022-08-25T11:46:39.508Z,31.86
2022-08-25T11:49:59.468Z,32.31
2022-08-25T11:52:33.215Z,32.40
2022-08-25T11:55:23.475Z,32.80
2022-08-25T11:58:12.756Z,33.28
2022-08-25T12:00:43.760Z,32.77
2022-08-25T12:03:34.070Z,32.31
2022-08-25T12:06:20.812Z,32.20
2022-08-25T12:09:14.406Z,32.56
2022-08-25T12:11:43.615Z,33.40
2022-08-25T12:14:14.514Z,33.18
2022-08-25T12:17:02.644Z,34.32
2022-08-25T12:19:37.181Z,34.33
2022-08-25T12:22:05.802Z,33.81
2022-08-25T12:24:48.154Z,33.33
2022-08-25T12:27:38.280Z,34.86
2022-08-25T12:30:20.598Z,35.39
2022-08-25T12:33:01.843Z,35.08
2022-08-25T12:35:32.897Z,34.28
2022-08-25T12:38:06.075Z,33.00
2022-08-25T12:40:53.148Z,33.21
2022-08-25T12:43:20.744Z,33.41
2022-08-25T12:45:55.115Z,32.23
2022-08-25T12:48:28.874Z,32.51
2022-08-25T12:51:03.963Z,32.67
2022-08-25T12:53:47.023Z,32.98
2022-08-25T12:56:37.606Z,33.38
2022-08-25T12:59:15.713Z,32.63
2022-08-25T13:02:16.188Z,32.91
2022-08-25T13:04:59.141Z,34.64
2022-08-25T13:07:33.798Z,33.62
2022-08-25T13:10:39.206Z,33.13
2022-08-25T13:13:14.758Z,31.90
2022-08-25T13:15:46.999Z,31.01
2022-08-25T13:18:19.560Z,30.58
2022-08-25T13:21:04.159Z,31.12
2022-08-25T13:23:37.877Z,31.59
2022-08-25T13:26:05.921Z,31.00
2022-08-25T13:28:37.486Z,31.94
2022-08-25T13:31:15.268Z,32.54
2022-08-25T13:33:55.975Z,31.42
2022-08-25T13:36:50.388Z,31.75
2022-08-25T13:39:45.487Z,31.36
2022-08-25T13:42:17.871Z,31.50
2022-08-25T13:44:51.762Z,31.52
2022-08-25T13:47:45.396Z,31.79
2022-08-25T13:50:18.409Z,32.03
2022-08-25T13:53:04.960Z,31.94
2022-08-25T13:55:51.236Z,31.44
2022-08-25T13:58:44.409Z,31.44
2022-08-25T14:01:49.696Z,31.30
2022-08-25T14:04:50.554Z,31.15
2022-08-25T14:07:23.045Z,31.10
2022-08-25T14:09:58.288Z,30.62
2022-08-25T14:12:47.487Z,29.98
2022-08-25T14:15:18.144Z,30.59
2022-08-25T14:18:00.132Z,31.29
2022-08-25T14:20:31.194Z,30.87
2022-08-25T14:23:09.707Z,31.12
2022-08-25T14:25:40.702Z,31.06
2022-08-25T14:28:19.570Z,30.97
2022-08-25T14:30:52.301Z,31.39
2022-08-25T14:33:23.902Z,32.02
2022-08-25T14:35:55.119Z,32.31
2022-08-25T14:38:23.148Z,32.39
2022-08-25T14:40:51.280Z,31.32
2022-08-25T14:43:20.941Z,31.34
2022-08-25T14:45:52.630Z,30.92
2022-08-25T14:48:29.697Z,32.34
2022-08-25T14:51:00.025Z,32.08
2022-08-25T14:53:28.604Z,32.63
2022-08-25T14:55:59.007Z,33.04
2022-08-25T14:58:33.886Z,32.86
2022-08-25T15:01:03.162Z,32.44
2022-08-25T15:03:34.420Z,32.39
2022-08-25T15:06:05.162Z,32.05
2022-08-25T15:08:51.011Z,32.59
2022-08-25T15:11:18.916Z,33.00
2022-08-25T15:13:49.629Z,32.75
2022-08-25T15:16:46.479Z,32.20
2022-08-25T15:19:16.316Z,32.63
2022-08-25T15:21:47.027Z,32.74
2022-08-25T15:24:17.371Z,32.65
2022-08-25T15:26:59.137Z,33.77
2022-08-25T15:29:30.233Z,33.99
2022-08-25T15:32:00.583Z,34.36
2022-08-25T15:34:29.462Z,34.43
2022-08-25T15:36:58.456Z,34.24
2022-08-25T15:39:27.230Z,33.94
2022-08-25T15:41:54.884Z,34.05
2022-08-25T15:44:29.511Z,33.51
2022-08-25T15:46:59.168Z,34.32
2022-08-25T15:49:29.814Z,34.39
2022-08-25T15:51:59.102Z,34.04
2022-08-25T15:54:28.199Z,34.35
2022-08-25T15:56:58.735Z,34.08
2022-08-25T15:59:28.755Z,34.41
2022-08-25T16:01:57.407Z,35.77
2022-08-25T16:04:28.232Z,36.89
2022-08-25T16:06:56.251Z,37.68
2022-08-25T16:09:24.364Z,37.75
2022-08-25T16:11:55.788Z,37.98
2022-08-25T16:14:27.681Z,37.86
2022-08-25T16:16:58.248Z,37.66
2022-08-25T16:19:29.416Z,38.13
2022-08-25T16:21:58.380Z,37.12
2022-08-25T16:24:27.944Z,37.97
2022-08-25T16:27:00.332Z,38.39
2022-08-25T16:29:43.862Z,38.21
2022-08-25T16:32:14.191Z,38.48
2022-08-25T16:34:44.259Z,38.86
2022-08-25T16:37:13.029Z,38.55
2022-08-25T16:39:44.295Z,38.82
2022-08-25T16:42:12.840Z,38.61
2022-08-25T16:44:41.229Z,39.39
2022-08-25T16:47:09.255Z,39.51
2022-08-25T16:49:37.257Z,39.86
2022-08-25T16:52:28.440Z,40.44
2022-08-25T16:55:15.325Z,39.87
2022-08-25T16:57:54.519Z,39.91
2022-08-25T17:00:28.656Z,39.61
2022-08-25T17:02:59.508Z,39.97
2022-08-25T17:05:29.397Z,40.29
2022-08-25T17:08:18.451Z,39.37
2022-08-25T17:10:47.302Z,40.17
2022-08-25T17:13:15.726Z,40.67
2022-08-25T17:15:47.254Z,40.19
2022-08-25T17:18:15.575Z,40.43
2022-08-25T17:20:45.379Z,40.86
2022-08-25T17:23:13.278Z,41.16
2022-08-25T17:25:42.906Z,41.14
2022-08-25T17:28:12.874Z,41.11
2022-08-25T17:30:41.862Z,41.44
2022-08-25T17:33:09.681Z,41.75
2022-08-25T17:35:46.649Z,42.91
2022-08-25T17:38:16.205Z,42.83
2022-08-25T17:40:44.218Z,43.13
2022-08-25T17:43:12.835Z,43.71
2022-08-25T17:45:42.061Z,44.40
2022-08-25T17:48:12.985Z,43.04
2022-08-25T17:50:41.817Z,43.78
2022-08-25T17:53:10.600Z,44.02
2022-08-25T17:55:43.089Z,43.58
2022-08-25T17:58:13.137Z,43.51
2022-08-25T18:00:43.904Z,44.01
2022-08-25T18:03:12.781Z,43.99
2022-08-25T18:05:41.257Z,44.09
2022-08-25T18:08:10.565Z,44.20
2022-08-25T18:10:39.769Z,44.51
2022-08-25T18:13:07.676Z,45.52
2022-08-25T18:15:35.851Z,44.57
2022-08-25T18:18:04.778Z,43.40
2022-08-25T18:20:32.977Z,42.72
2022-08-25T18:23:00.972Z,43.02
2022-08-25T18:25:29.183Z,43.52
2022-08-25T18:27:57.805Z,43.31
2022-08-25T18:30:27.367Z,42.91
2022-08-25T18:32:55.658Z,43.30
2022-08-25T18:35:26.761Z,42.59
2022-08-25T18:38:13.269Z,42.48
2022-08-25T18:40:42.077Z,42.65
2022-08-25T18:43:12.108Z,42.78
2022-08-25T18:45:44.190Z,42.95
2022-08-25T18:48:11.999Z,42.56
2022-08-25T18:50:41.373Z,42.12
2022-08-25T18:53:09.743Z,42.74
2022-08-25T18:55:39.376Z,43.08
2022-08-25T18:58:08.229Z,42.99
2022-08-25T19:00:37.829Z,43.85
2022-08-25T19:03:06.127Z,43.54
2022-08-25T19:05:37.641Z,44.64
2022-08-25T19:08:07.875Z,43.71
2022-08-25T19:10:37.065Z,43.61
2022-08-25T19:13:08.330Z,43.79
2022-08-25T19:15:39.450Z,43.56
2022-08-25T19:18:09.928Z,43.63
2022-08-25T19:20:39.788Z,43.40
2022-08-25T19:23:08.946Z,43.67
2022-08-25T19:25:41.796Z,43.47
2022-08-25T19:28:13.084Z,43.01
2022-08-25T19:30:50.110Z,43.09
2022-08-25T19:33:42.129Z,43.36
2022-08-25T19:36:08.781Z,43.50
2022-08-25T19:38:37.880Z,43.14
2022-08-25T19:41:10.947Z,43.10
2022-08-25T19:43:50.521Z,43.04
2022-08-25T19:46:35.450Z,42.86
2022-08-25T19:49:19.929Z,43.46
2022-08-25T19:51:51.466Z,43.81
2022-08-25T19:54:26.490Z,44.04
2022-08-25T19:56:55.742Z,43.63
2022-08-25T19:59:40.672Z,43.64
2022-08-25T20:02:20.204Z,44.06
2022-08-25T20:04:52.297Z,43.71
2022-08-25T20:07:22.947Z,43.81
2022-08-25T20:09:53.251Z,43.26
2022-08-25T20:12:22.599Z,43.18
2022-08-25T20:14:52.236Z,43.05
2022-08-25T20:17:23.451Z,42.82
2022-08-25T20:19:55.725Z,42.83
2022-08-25T20:22:29.057Z,43.35
2022-08-25T20:24:59.500Z,42.87
2022-08-25T20:27:35.177Z,43.06
2022-08-25T20:30:07.271Z,42.85
2022-08-25T20:32:36.973Z,43.22
2022-08-25T20:35:08.949Z,43.44
2022-08-25T20:37:38.209Z,42.95
2022-08-25T20:40:08.025Z,43.36
2022-08-25T20:42:40.542Z,43.93
2022-08-25T20:45:10.369Z,44.33
2022-08-25T20:47:40.209Z,44.08
2022-08-25T20:50:10.643Z,44.54
2022-08-25T20:52:39.169Z,44.49
2022-08-25T20:55:10.914Z,44.35
2022-08-25T20:57:40.488Z,44.05
2022-08-25T21:00:09.292Z,44.51
2022-08-25T21:02:37.714Z,44.43
2022-08-25T21:05:06.227Z,44.10
2022-08-25T21:07:35.756Z,44.20
2022-08-25T21:10:10.330Z,44.44
2022-08-25T21:12:39.622Z,44.62
2022-08-25T21:15:07.988Z,44.33
2022-08-25T21:17:36.501Z,44.30
2022-08-25T21:20:06.655Z,43.61
2022-08-25T21:22:36.516Z,43.66
2022-08-25T21:25:06.949Z,43.75
2022-08-25T21:27:34.852Z,43.16
2022-08-25T21:30:02.441Z,43.52
2022-08-25T21:32:30.811Z,42.76
2022-08-25T21:34:58.494Z,42.96
2022-08-25T21:37:26.787Z,43.08
2022-08-25T21:39:54.608Z,43.14
2022-08-25T21:42:24.090Z,42.96
2022-08-25T21:44:52.955Z,42.55
2022-08-25T21:47:21.544Z,42.10
2022-08-25T21:49:50.400Z,41.99
2022-08-25T21:52:19.108Z,42.34
2022-08-25T21:54:46.955Z,42.54
2022-08-25T21:57:17.952Z,42.24
2022-08-25T21:59:46.852Z,42.57
2022-08-25T22:02:19.240Z,41.96
2022-08-25T22:04:54.004Z,41.23
2022-08-25T22:07:24.658Z,40.85
2022-08-25T22:09:53.589Z,40.92
2022-08-25T22:12:22.102Z,39.92
2022-08-25T22:14:50.802Z,40.13
2022-08-25T22:17:21.214Z,40.20
2022-08-25T22:19:53.781Z,40.34
2022-08-25T22:22:22.257Z,41.06
2022-08-25T22:24:50.460Z,40.43
2022-08-25T22:27:18.613Z,40.63
2022-08-25T22:29:46.348Z,40.40
2022-08-25T22:32:14.057Z,40.44
2022-08-25T22:34:41.867Z,41.22
2022-08-25T22:37:12.105Z,41.33
2022-08-25T22:39:40.337Z,41.15
2022-08-25T22:42:08.242Z,41.32
2022-08-25T22:44:38.823Z,41.58
2022-08-25T22:47:09.497Z,41.38
2022-08-25T22:49:40.350Z,42.19
2022-08-25T22:52:09.404Z,41.70
2022-08-25T22:54:41.879Z,41.62
2022-08-25T22:57:10.771Z,42.14
2022-08-25T22:59:38.931Z,42.06
2022-08-25T23:02:06.833Z,41.88
2022-08-25T23:04:35.886Z,42.27
2022-08-25T23:07:09.405Z,42.57
2022-08-25T23:09:37.739Z,42.36
2022-08-25T23:12:07.016Z,42.68
2022-08-25T23:14:42.148Z,41.75
2022-08-25T23:17:12.153Z,43.28
2022-08-25T23:19:40.126Z,43.15
2022-08-25T23:22:11.009Z,42.45
2022-08-25T23:24:43.127Z,42.02
2022-08-25T23:27:13.544Z,41.99
2022-08-25T23:29:43.804Z,41.72
2022-08-25T23:32:13.951Z,41.95
2022-08-25T23:34:46.752Z,42.05
2022-08-25T23:37:16.220Z,42.57
2022-08-25T23:39:49.490Z,42.65
2022-08-25T23:42:19.446Z,42.84
2022-08-25T23:44:48.721Z,42.41
2022-08-25T23:47:17.940Z,42.76
2022-08-25T23:49:48.130Z,43.18
2022-08-25T23:52:17.707Z,43.60
2022-08-25T23:54:47.106Z,43.38
2022-08-25T23:57:15.071Z,43.05
2022-08-25T23:59:43.263Z,42.98
